createdAt,value
2022-08-03T00:01:40.817Z,91.70
2022-08-03T00:04:09.763Z,91.70
2022-08-03T00:06:38.015Z,91.70
2022-08-03T00:09:06.013Z,91.70
2022-08-03T00:11:34.351Z,91.60
2022-08-03T00:14:02.068Z,91.50
2022-08-03T00:16:29.751Z,91.70
2022-08-03T00:18:57.642Z,91.80
2022-08-03T00:21:25.354Z,91.90
2022-08-03T00:23:53.214Z,91.90
2022-08-03T00:26:21.768Z,92.00
2022-08-03T00:28:52.027Z,92.10
2022-08-03T00:31:34.585Z,92.30
2022-08-03T00:34:08.136Z,92.40
2022-08-03T00:36:36.009Z,92.50
2022-08-03T00:39:03.707Z,92.60
2022-08-03T00:41:31.755Z,92.80
2022-08-03T00:44:00.695Z,93.10
2022-08-03T00:46:33.648Z,93.20
2022-08-03T00:49:02.456Z,93.30
2022-08-03T00:51:30.138Z,93.30
2022-08-03T00:54:00.808Z,93.30
2022-08-03T00:56:30.711Z,93.40
2022-08-03T00:58:59.086Z,93.30
2022-08-03T01:01:26.960Z,93.30
2022-08-03T01:04:00.402Z,93.40
2022-08-03T01:06:40.295Z,93.50
2022-08-03T01:09:23.415Z,93.40
2022-08-03T01:12:26.762Z,93.40
2022-08-03T01:14:57.768Z,93.60
2022-08-03T01:17:26.801Z,93.60
2022-08-03T01:19:58.978Z,93.60
2022-08-03T01:22:50.269Z,93.60
2022-08-03T01:25:36.708Z,93.60
2022-08-03T01:28:23.320Z,93.70
2022-08-03T01:31:12.933Z,93.80
2022-08-03T01:33:47.194Z,93.70
2022-08-03T01:36:16.378Z,93.60
2022-08-03T01:38:49.824Z,93.60
2022-08-03T01:41:19.235Z,93.60
2022-08-03T01:44:27.698Z,93.60
2022-08-03T01:46:38.783Z,93.60
2022-08-03T01:49:11.510Z,93.60
2022-08-03T01:51:57.850Z,93.70
2022-08-03T01:54:30.824Z,93.70
2022-08-03T01:56:59.879Z,93.80
2022-08-03T01:59:28.675Z,93.90
2022-08-03T02:02:15.257Z,93.90
2022-08-03T02:04:46.275Z,93.90
2022-08-03T02:07:17.252Z,94.00
2022-08-03T02:09:49.929Z,94.00
2022-08-03T02:12:18.879Z,94.00
2022-08-03T02:14:48.525Z,94.00
2022-08-03T02:17:16.504Z,94.10
2022-08-03T02:19:44.974Z,94.10
2022-08-03T02:22:14.316Z,94.00
2022-08-03T02:24:42.347Z,94.00
2022-08-03T02:27:21.725Z,94.10
2022-08-03T02:30:07.781Z,94.20
2022-08-03T02:32:37.027Z,94.10
2022-08-03T02:35:06.298Z,94.10
2022-08-03T02:37:35.846Z,94.20
2022-08-03T02:40:05.534Z,94.20
2022-08-03T02:42:35.661Z,94.10
2022-08-03T02:45:05.835Z,94.10
2022-08-03T02:47:54.306Z,94.10
2022-08-03T02:50:24.767Z,94.20
2022-08-03T02:52:55.411Z,93.90
2022-08-03T02:55:26.926Z,94.00
2022-08-03T02:57:55.926Z,93.80
2022-08-03T03:00:27.628Z,93.80
2022-08-03T03:03:00.432Z,93.80
2022-08-03T03:05:56.803Z,93.80
2022-08-03T03:08:20.873Z,94.00
2022-08-03T03:10:58.443Z,94.00
2022-08-03T03:13:28.507Z,94.00
2022-08-03T03:15:58.051Z,94.00
2022-08-03T03:18:27.806Z,94.10
2022-08-03T03:20:56.860Z,94.10
2022-08-03T03:23:27.018Z,94.00
2022-08-03T03:25:56.377Z,94.20
2022-08-03T03:28:25.303Z,93.90
2022-08-03T03:30:53.594Z,94.00
2022-08-03T03:33:24.647Z,93.80
2022-08-03T03:35:53.029Z,93.80
2022-08-03T03:38:20.862Z,93.70
2022-08-03T03:40:51.761Z,93.60
2022-08-03T03:43:22.919Z,93.50
2022-08-03T03:45:51.833Z,93.40
2022-08-03T03:48:22.253Z,93.20
2022-08-03T03:50:51.011Z,93.10
2022-08-03T03:53:18.827Z,93.30
2022-08-03T03:55:59.807Z,92.90
2022-08-03T03:58:32.789Z,93.00
2022-08-03T04:01:02.208Z,92.80
2022-08-03T04:03:30.247Z,92.60
2022-08-03T04:06:16.660Z,92.50
2022-08-03T04:09:05.552Z,92.30
2022-08-03T04:11:36.463Z,92.20
2022-08-03T04:14:10.813Z,92.10
2022-08-03T04:16:43.581Z,92.10
2022-08-03T04:19:36.836Z,92.00
2022-08-03T04:22:06.931Z,91.80
2022-08-03T04:24:39.042Z,91.50
2022-08-03T04:27:07.692Z,91.70
2022-08-03T04:29:46.374Z,91.50
2022-08-03T04:32:30.137Z,91.70
2022-08-03T04:34:58.342Z,91.60
2022-08-03T04:38:09.046Z,91.70
2022-08-03T04:41:00.807Z,91.60
2022-08-03T04:43:39.177Z,91.50
2022-08-03T04:46:11.745Z,91.40
2022-08-03T04:49:21.944Z,91.40
2022-08-03T04:51:58.236Z,91.20
2022-08-03T04:54:50.291Z,91.20
2022-08-03T04:57:23.571Z,91.10
2022-08-03T05:00:01.246Z,91.10
2022-08-03T05:02:33.791Z,91.10
2022-08-03T05:05:04.287Z,91.10
2022-08-03T05:07:36.253Z,91.10
2022-08-03T05:10:16.332Z,91.00
2022-08-03T05:12:52.570Z,90.90
2022-08-03T05:15:47.411Z,91.00
2022-08-03T05:18:32.512Z,90.90
2022-08-03T05:21:09.578Z,90.90
2022-08-03T05:23:51.483Z,90.70
2022-08-03T05:26:27.445Z,90.60
2022-08-03T05:29:17.492Z,90.40
2022-08-03T05:31:48.953Z,90.30
2022-08-03T05:34:19.880Z,90.10
2022-08-03T05:36:55.436Z,90.00
2022-08-03T05:39:25.923Z,89.30
2022-08-03T05:41:56.562Z,89.30
2022-08-03T05:44:31.923Z,89.80
2022-08-03T05:47:05.802Z,89.10
2022-08-03T05:49:37.042Z,88.00
2022-08-03T05:52:12.106Z,87.20
2022-08-03T05:54:56.138Z,86.90
2022-08-03T05:57:25.932Z,86.00
2022-08-03T06:03:22.510Z,85.40
2022-08-03T06:06:20.914Z,85.40
2022-08-03T06:09:05.860Z,85.40
2022-08-03T06:11:42.611Z,85.20
2022-08-03T06:15:07.979Z,85.00
2022-08-03T06:18:15.149Z,85.00
2022-08-03T06:21:16.426Z,85.20
2022-08-03T06:23:54.875Z,85.10
2022-08-03T06:26:25.554Z,85.10
2022-08-03T06:28:55.231Z,84.60
2022-08-03T06:31:33.066Z,84.50
2022-08-03T06:34:33.640Z,83.30
2022-08-03T06:37:10.561Z,82.90
2022-08-03T06:40:04.782Z,82.00
2022-08-03T06:43:17.450Z,82.20
2022-08-03T06:46:08.463Z,81.20
2022-08-03T06:48:36.688Z,81.10
2022-08-03T06:52:05.602Z,80.70
2022-08-03T06:54:27.512Z,80.30
2022-08-03T06:57:11.383Z,80.00
2022-08-03T07:00:22.699Z,79.90
2022-08-03T07:03:10.343Z,80.60
2022-08-03T07:06:36.757Z,80.20
2022-08-03T07:09:24.030Z,79.60
2022-08-03T07:16:44.551Z,79.50
2022-08-03T07:19:22.890Z,78.40
2022-08-03T07:22:26.704Z,78.20
2022-08-03T07:24:58.587Z,78.70
2022-08-03T07:27:34.126Z,78.40
2022-08-03T07:30:05.735Z,77.90
2022-08-03T07:32:50.453Z,78.20
2022-08-03T07:35:25.601Z,79.00
2022-08-03T07:37:55.432Z,78.00
2022-08-03T07:40:32.095Z,78.10
2022-08-03T07:46:36.916Z,78.10
2022-08-03T08:25:47.923Z,75.40
2022-08-03T08:29:01.743Z,72.40
2022-08-03T08:31:43.805Z,72.10
2022-08-03T08:34:39.142Z,72.90
2022-08-03T08:37:06.997Z,73.40
2022-08-03T08:42:25.898Z,72.30
2022-08-03T08:44:57.255Z,72.30
2022-08-03T08:47:26.107Z,71.60
2022-08-03T08:50:09.238Z,72.30
2022-08-03T08:52:41.173Z,72.00
2022-08-03T08:55:17.418Z,70.00
2022-08-03T08:58:50.708Z,71.10
2022-08-03T09:01:46.223Z,72.00
2022-08-03T09:04:53.126Z,71.10
2022-08-03T09:12:35.419Z,70.60
2022-08-03T09:16:01.188Z,70.90
2022-08-03T09:23:01.494Z,69.80
2022-08-03T09:26:13.143Z,69.60
2022-08-03T09:29:59.545Z,69.90
2022-08-03T09:36:09.445Z,68.50
2022-08-03T09:39:04.423Z,68.00
2022-08-03T09:43:06.982Z,67.60
2022-08-03T09:46:04.227Z,67.60
2022-08-03T09:48:37.676Z,66.00
2022-08-03T09:57:38.247Z,67.50
2022-08-03T10:00:16.651Z,67.80
2022-08-03T10:02:50.774Z,67.30
2022-08-03T10:05:31.831Z,67.10
2022-08-03T10:08:03.115Z,66.40
2022-08-03T10:10:45.312Z,66.30
2022-08-03T10:16:47.822Z,64.60
2022-08-03T10:19:16.816Z,62.30
2022-08-03T10:21:55.474Z,62.30
2022-08-03T10:24:36.441Z,61.20
2022-08-03T10:34:44.278Z,62.30
2022-08-03T10:41:07.240Z,60.00
2022-08-03T10:44:12.797Z,61.20
2022-08-03T10:46:45.519Z,62.10
2022-08-03T10:49:38.663Z,59.80
2022-08-03T10:52:31.473Z,60.30
2022-08-03T10:55:50.154Z,60.20
2022-08-03T10:58:53.325Z,56.60
2022-08-03T11:01:59.061Z,57.80
2022-08-03T11:04:34.065Z,60.00
2022-08-03T11:07:23.921Z,59.20
2022-08-03T11:09:52.161Z,59.50
2022-08-03T11:12:30.176Z,58.80
2022-08-03T11:15:08.483Z,59.10
2022-08-03T11:18:08.250Z,58.00
2022-08-03T11:20:48.557Z,57.60
2022-08-03T11:24:04.334Z,58.10
2022-08-03T11:30:54.545Z,56.50
2022-08-03T11:33:48.568Z,53.90
2022-08-03T11:36:32.372Z,54.10
2022-08-03T11:39:17.536Z,54.60
2022-08-03T11:42:22.728Z,54.90
2022-08-03T11:45:06.171Z,55.90
2022-08-03T11:47:52.528Z,54.60
2022-08-03T11:53:42.137Z,52.40
2022-08-03T11:57:15.623Z,54.30
2022-08-03T12:02:41.727Z,56.50
2022-08-03T12:05:14.380Z,55.10
2022-08-03T12:08:03.061Z,57.10
2022-08-03T12:10:47.099Z,55.90
2022-08-03T12:14:32.973Z,55.60
2022-08-03T12:16:12.718Z,56.30
2022-08-03T12:18:45.262Z,54.40
2022-08-03T12:21:29.472Z,54.50
2022-08-03T12:24:06.042Z,54.50
2022-08-03T12:30:02.164Z,55.60
2022-08-03T12:32:32.339Z,55.30
2022-08-03T12:35:05.440Z,52.30
2022-08-03T12:37:51.044Z,51.40
2022-08-03T12:41:24.170Z,54.80
2022-08-03T12:44:35.412Z,55.00
2022-08-03T12:54:30.786Z,54.30
2022-08-03T13:26:01.962Z,53.70
2022-08-03T13:28:30.036Z,54.30
2022-08-03T13:31:00.231Z,54.50
2022-08-03T13:33:28.765Z,55.10
2022-08-03T13:35:58.592Z,55.50
2022-08-03T13:38:27.027Z,53.30
2022-08-03T13:40:58.983Z,46.70
2022-08-03T13:43:26.882Z,50.60
2022-08-03T13:45:57.876Z,52.10
2022-08-03T13:53:53.429Z,51.90
2022-08-03T14:11:05.668Z,53.00
2022-08-03T14:13:54.795Z,52.30
2022-08-03T14:16:24.106Z,53.30
2022-08-03T14:18:52.414Z,53.70
2022-08-03T14:21:28.852Z,53.10
2022-08-03T14:24:08.336Z,51.50
2022-08-03T14:26:36.255Z,52.80
2022-08-03T14:32:10.158Z,52.10
2022-08-03T14:34:49.804Z,52.00
2022-08-03T14:37:22.090Z,52.60
2022-08-03T14:40:00.756Z,52.70
2022-08-03T14:42:32.858Z,52.80
2022-08-03T14:45:09.350Z,53.90
2022-08-03T14:51:23.307Z,53.60
2022-08-03T14:54:13.838Z,52.80
2022-08-03T14:57:26.224Z,53.10
2022-08-03T14:59:56.551Z,53.60
2022-08-03T15:02:26.535Z,54.50
2022-08-03T15:05:02.081Z,53.70
2022-08-03T15:07:41.226Z,53.90
2022-08-03T15:10:12.011Z,54.10
2022-08-03T15:12:45.242Z,53.30
2022-08-03T15:15:13.344Z,53.60
2022-08-03T15:18:00.036Z,53.10
2022-08-03T15:20:40.962Z,53.30
2022-08-03T15:24:05.363Z,53.40
2022-08-03T15:30:10.301Z,53.90
2022-08-03T15:32:38.336Z,54.50
2022-08-03T15:35:08.578Z,54.90
2022-08-03T15:37:42.000Z,54.40
2022-08-03T15:40:50.617Z,55.40
2022-08-03T15:43:18.895Z,54.90
2022-08-03T15:45:54.605Z,54.30
2022-08-03T15:52:17.916Z,54.80
2022-08-03T15:54:49.597Z,54.70
2022-08-03T15:57:34.732Z,55.20
2022-08-03T16:01:07.446Z,55.30
2022-08-03T16:04:08.464Z,55.40
2022-08-03T16:09:50.223Z,56.50
2022-08-03T16:15:51.558Z,56.60
2022-08-03T16:18:20.641Z,55.90
2022-08-03T16:20:48.865Z,56.20
2022-08-03T16:23:18.922Z,55.60
2022-08-03T16:25:52.483Z,55.90
2022-08-03T16:28:20.986Z,56.00
2022-08-03T16:30:54.791Z,56.20
2022-08-03T16:33:24.644Z,55.70
2022-08-03T16:35:55.351Z,55.80
2022-08-03T16:38:47.101Z,56.10
2022-08-03T16:41:22.249Z,56.70
2022-08-03T16:43:51.486Z,57.20
2022-08-03T16:46:19.882Z,56.90
2022-08-03T16:49:09.141Z,57.40
2022-08-03T16:51:50.602Z,57.50
2022-08-03T16:54:19.138Z,57.70
2022-08-03T16:56:55.350Z,58.40
2022-08-03T16:59:37.341Z,58.60
2022-08-03T17:02:10.380Z,58.70
2022-08-03T17:04:42.117Z,59.20
2022-08-03T17:07:15.070Z,59.80
2022-08-03T17:09:43.800Z,59.90
2022-08-03T17:12:12.540Z,59.20
2022-08-03T17:14:41.310Z,59.30
2022-08-03T17:17:16.920Z,59.20
2022-08-03T17:19:47.176Z,59.40
2022-08-03T17:22:18.049Z,58.80
2022-08-03T17:24:53.986Z,59.10
2022-08-03T17:28:48.392Z,59.60
2022-08-03T17:30:16.146Z,58.60
2022-08-03T17:32:57.085Z,59.20
2022-08-03T17:35:34.560Z,59.10
2022-08-03T17:38:10.667Z,59.30
2022-08-03T17:40:49.970Z,59.70
2022-08-03T17:44:12.761Z,60.20
2022-08-03T17:46:16.823Z,60.30
2022-08-03T17:48:48.874Z,60.30
2022-08-03T17:51:32.740Z,60.40
2022-08-03T17:54:18.328Z,60.80
2022-08-03T17:56:52.417Z,60.10
2022-08-03T17:59:51.724Z,60.20
2022-08-03T18:02:48.984Z,60.20
2022-08-03T18:05:21.836Z,60.30
2022-08-03T18:10:49.773Z,60.70
2022-08-03T18:13:30.320Z,60.70
2022-08-03T18:16:04.676Z,61.00
2022-08-03T18:18:55.019Z,61.30
2022-08-03T18:21:24.358Z,61.40
2022-08-03T18:23:52.619Z,62.00
2022-08-03T18:26:26.518Z,62.20
2022-08-03T18:28:58.247Z,62.30
2022-08-03T18:31:33.077Z,62.70
2022-08-03T18:34:32.474Z,62.80
2022-08-03T18:37:07.146Z,63.10
2022-08-03T18:39:50.158Z,63.50
2022-08-03T18:42:26.194Z,63.80
2022-08-03T18:44:55.994Z,64.00
2022-08-03T18:47:50.456Z,64.20
2022-08-03T18:50:32.980Z,64.40
2022-08-03T18:53:19.737Z,64.80
2022-08-03T18:56:03.534Z,65.20
2022-08-03T18:58:38.746Z,65.50
2022-08-03T19:01:57.804Z,65.90
2022-08-03T19:03:58.034Z,66.20
2022-08-03T19:06:29.881Z,66.40
2022-08-03T19:09:00.611Z,66.80
2022-08-03T19:14:41.663Z,67.50
2022-08-03T19:17:14.450Z,67.80
2022-08-03T19:19:51.496Z,68.00
2022-08-03T19:22:21.543Z,68.30
2022-08-03T19:24:51.016Z,68.50
2022-08-03T19:27:21.567Z,68.80
2022-08-03T19:29:58.924Z,68.90
2022-08-03T19:32:30.197Z,69.10
2022-08-03T19:34:59.531Z,69.30
2022-08-03T19:37:39.819Z,70.30
2022-08-03T19:40:10.776Z,69.80
2022-08-03T19:42:46.681Z,69.90
2022-08-03T19:45:22.273Z,70.10
2022-08-03T19:48:12.207Z,70.20
2022-08-03T19:50:44.719Z,70.50
2022-08-03T19:53:15.220Z,70.60
2022-08-03T19:55:47.545Z,70.70
2022-08-03T19:58:17.552Z,71.00
2022-08-03T20:00:48.924Z,71.20
2022-08-03T20:03:23.382Z,71.30
2022-08-03T20:05:57.248Z,71.50
2022-08-03T20:08:29.770Z,71.90
2022-08-03T20:10:59.935Z,72.10
2022-08-03T20:16:22.919Z,72.40
2022-08-03T20:18:50.785Z,72.70
2022-08-03T20:21:26.073Z,72.70
2022-08-03T20:24:02.791Z,73.00
2022-08-03T20:26:48.426Z,73.00
2022-08-03T20:29:42.824Z,73.00
2022-08-03T20:32:24.420Z,73.20
2022-08-03T20:35:00.311Z,73.30
2022-08-03T20:37:30.446Z,73.40
2022-08-03T20:40:03.991Z,73.70
2022-08-03T20:42:31.675Z,74.00
2022-08-03T20:45:05.696Z,74.30
2022-08-03T20:47:50.242Z,74.30
2022-08-03T20:50:19.200Z,74.50
2022-08-03T20:52:50.591Z,74.60
2022-08-03T20:55:47.698Z,74.70
2022-08-03T20:58:10.027Z,74.90
2022-08-03T21:00:38.278Z,75.00
2022-08-03T21:03:09.038Z,74.80
2022-08-03T21:05:48.375Z,74.90
2022-08-03T21:08:21.291Z,75.20
2022-08-03T21:10:51.779Z,75.70
2022-08-03T21:13:04.224Z,60.50
2022-08-03T21:13:11.100Z,67.00
2022-08-03T21:13:11.101Z,72.40
2022-08-03T21:13:24.951Z,75.80
2022-08-03T21:16:12.360Z,76.00
2022-08-03T21:18:52.185Z,76.00
2022-08-03T21:21:23.799Z,75.90
2022-08-03T21:23:55.629Z,75.50
2022-08-03T21:26:27.177Z,75.80
2022-08-03T21:28:56.380Z,75.50
2022-08-03T21:31:27.539Z,75.40
2022-08-03T21:34:00.935Z,75.40
2022-08-03T21:36:29.844Z,75.80
2022-08-03T21:39:00.731Z,75.90
2022-08-03T21:41:32.032Z,75.70
2022-08-03T21:44:00.585Z,75.90
2022-08-03T21:46:30.386Z,76.40
2022-08-03T21:50:05.702Z,76.20
2022-08-03T21:51:49.829Z,76.40
2022-08-03T21:54:20.318Z,76.60
2022-08-03T21:56:48.499Z,77.20
2022-08-03T21:59:17.860Z,77.20
2022-08-03T22:01:54.983Z,77.40
2022-08-03T22:04:53.332Z,77.50
2022-08-03T22:07:17.551Z,77.70
2022-08-03T22:09:51.289Z,77.80
2022-08-03T22:12:42.389Z,78.00
2022-08-03T22:15:29.230Z,78.00
2022-08-03T22:17:57.575Z,78.40
2022-08-03T22:20:29.102Z,78.60
2022-08-03T22:23:05.119Z,78.60
2022-08-03T22:25:39.068Z,78.90
2022-08-03T22:31:30.663Z,78.90
2022-08-03T22:34:14.401Z,78.90
2022-08-03T22:37:03.834Z,79.00
2022-08-03T22:39:37.895Z,78.80
2022-08-03T22:42:17.727Z,78.80
2022-08-03T22:44:46.712Z,78.90
2022-08-03T22:47:22.656Z,79.10
2022-08-03T22:50:33.536Z,79.20
2022-08-03T22:52:46.631Z,79.30
2022-08-03T22:55:24.537Z,79.30
2022-08-03T22:57:55.887Z,79.30
2022-08-03T23:00:24.617Z,79.30
2022-08-03T23:02:54.111Z,79.30
2022-08-03T23:06:00.957Z,79.30
2022-08-03T23:08:15.365Z,79.30
2022-08-03T23:10:46.819Z,79.20
2022-08-03T23:13:16.844Z,79.20
2022-08-03T23:15:47.923Z,79.20
2022-08-03T23:18:19.216Z,79.20
2022-08-03T23:20:49.712Z,78.80
2022-08-03T23:23:20.856Z,79.20
2022-08-03T23:25:49.842Z,79.00
2022-08-03T23:28:18.220Z,79.10
2022-08-03T23:30:47.493Z,78.90
2022-08-03T23:33:16.669Z,79.00
2022-08-03T23:36:27.887Z,78.90
2022-08-03T23:38:48.676Z,78.90
2022-08-03T23:41:17.933Z,78.70
2022-08-03T23:43:52.347Z,78.60
2022-08-03T23:46:26.183Z,78.80
2022-08-03T23:48:59.239Z,78.90
2022-08-03T23:51:32.981Z,78.80
2022-08-03T23:54:07.164Z,78.80
2022-08-03T23:56:37.969Z,78.70
2022-08-03T23:59:21.834Z,78.70
